createdAt,value
2022-12-24T00:01:07.974Z,100.00
2022-12-24T00:03:37.285Z,100.00
2022-12-24T00:06:05.872Z,100.00
2022-12-24T00:08:33.487Z,100.00
2022-12-24T00:11:00.931Z,100.00
2022-12-24T00:13:28.413Z,100.00
2022-12-24T00:15:55.883Z,100.00
2022-12-24T00:18:24.632Z,100.00
2022-12-24T00:20:52.366Z,100.00
2022-12-24T00:23:20.444Z,100.00
2022-12-24T00:25:48.178Z,100.00
2022-12-24T00:28:16.560Z,100.00
2022-12-24T00:30:44.558Z,100.00
2022-12-24T00:33:12.295Z,100.00
2022-12-24T00:35:41.640Z,100.00
2022-12-24T00:38:09.953Z,100.00
2022-12-24T00:40:37.527Z,100.00
2022-12-24T00:43:05.021Z,100.00
2022-12-24T00:45:32.431Z,100.00
2022-12-24T00:47:59.847Z,100.00
2022-12-24T00:50:27.274Z,100.00
2022-12-24T00:52:56.129Z,100.00
2022-12-24T00:55:23.560Z,100.00
2022-12-24T00:57:50.947Z,100.00
2022-12-24T01:00:19.012Z,100.00
2022-12-24T01:02:46.548Z,100.00
2022-12-24T01:05:14.234Z,100.00
2022-12-24T01:07:44.945Z,100.00
2022-12-24T01:10:15.077Z,100.00
2022-12-24T01:12:43.270Z,100.00
2022-12-24T01:15:12.542Z,100.00
2022-12-24T01:17:40.903Z,100.00
2022-12-24T01:20:10.639Z,100.00
2022-12-24T01:22:38.115Z,100.00
2022-12-24T01:25:06.312Z,100.00
2022-12-24T01:27:35.147Z,100.00
2022-12-24T01:30:02.748Z,100.00
2022-12-24T01:32:30.454Z,100.00
2022-12-24T01:34:57.916Z,100.00
2022-12-24T01:37:25.382Z,100.00
2022-12-24T01:40:12.842Z,100.00
2022-12-24T01:43:06.508Z,100.00
2022-12-24T01:45:42.854Z,100.00
2022-12-24T01:48:28.564Z,100.00
2022-12-24T01:50:59.754Z,100.00
2022-12-24T01:53:27.413Z,100.00
2022-12-24T01:55:56.019Z,100.00
2022-12-24T01:58:26.189Z,100.00
2022-12-24T02:00:53.690Z,100.00
2022-12-24T02:03:22.184Z,100.00
2022-12-24T02:05:51.848Z,100.00
2022-12-24T02:08:20.551Z,100.00
2022-12-24T02:10:49.260Z,100.00
2022-12-24T02:13:19.934Z,100.00
2022-12-24T02:16:11.700Z,100.00
2022-12-24T02:18:47.386Z,100.00
2022-12-24T02:21:31.989Z,100.00
2022-12-24T02:24:21.776Z,100.00
2022-12-24T02:27:11.155Z,100.00
2022-12-24T02:30:04.250Z,100.00
2022-12-24T02:32:38.322Z,100.00
2022-12-24T02:35:11.652Z,100.00
2022-12-24T02:37:42.291Z,100.00
2022-12-24T02:40:16.737Z,100.00
2022-12-24T02:42:49.868Z,100.00
2022-12-24T02:45:23.119Z,100.00
2022-12-24T02:47:52.565Z,100.00
2022-12-24T02:50:20.223Z,100.00
2022-12-24T02:52:48.448Z,100.00
2022-12-24T02:55:20.203Z,100.00
2022-12-24T02:58:06.989Z,100.00
2022-12-24T03:00:46.591Z,100.00
2022-12-24T03:03:31.335Z,100.00
2022-12-24T03:06:06.021Z,100.00
2022-12-24T03:08:44.811Z,100.00
2022-12-24T03:11:15.202Z,100.00
2022-12-24T03:13:44.184Z,100.00
2022-12-24T03:16:16.123Z,100.00
2022-12-24T03:18:46.956Z,100.00
2022-12-24T03:21:18.463Z,100.00
2022-12-24T03:23:45.944Z,100.00
2022-12-24T03:26:17.290Z,100.00
2022-12-24T03:28:45.583Z,100.00
2022-12-24T03:31:15.618Z,100.00
2022-12-24T03:33:43.176Z,100.00
2022-12-24T03:36:11.645Z,100.00
2022-12-24T03:38:39.174Z,100.00
2022-12-24T03:41:07.149Z,100.00
2022-12-24T03:43:34.587Z,100.00
2022-12-24T03:46:05.367Z,100.00
2022-12-24T03:48:36.728Z,100.00
2022-12-24T03:51:05.049Z,100.00
2022-12-24T03:53:32.887Z,100.00
2022-12-24T03:56:00.313Z,100.00
2022-12-24T03:58:27.798Z,100.00
2022-12-24T04:00:55.404Z,100.00
2022-12-24T04:03:22.937Z,100.00
2022-12-24T04:06:02.347Z,100.00
2022-12-24T04:08:29.934Z,100.00
2022-12-24T04:10:57.339Z,98.27
2022-12-24T04:13:25.053Z,100.00
2022-12-24T04:15:58.369Z,100.00
2022-12-24T04:18:25.813Z,100.00
2022-12-24T04:20:54.888Z,100.00
2022-12-24T04:23:22.866Z,100.00
2022-12-24T04:25:50.559Z,99.38
2022-12-24T04:28:18.512Z,96.59
2022-12-24T04:30:45.922Z,100.00
2022-12-24T04:33:13.342Z,100.00
2022-12-24T04:35:42.209Z,97.69
2022-12-24T04:38:11.222Z,94.89
2022-12-24T04:40:38.627Z,95.92
2022-12-24T04:43:06.647Z,96.79
2022-12-24T04:45:34.197Z,97.00
2022-12-24T04:48:01.667Z,100.00
2022-12-24T04:50:29.135Z,98.70
2022-12-24T04:52:56.579Z,98.19
2022-12-24T04:55:26.163Z,95.27
2022-12-24T04:57:53.722Z,94.75
2022-12-24T05:00:21.683Z,94.71
2022-12-24T05:02:49.305Z,94.94
2022-12-24T05:05:16.951Z,95.14
2022-12-24T05:07:44.352Z,97.08
2022-12-24T05:10:12.277Z,94.73
2022-12-24T05:12:40.999Z,96.15
2022-12-24T05:15:09.860Z,97.11
2022-12-24T05:17:37.284Z,96.83
2022-12-24T05:20:05.157Z,96.37
2022-12-24T05:22:50.035Z,95.90
2022-12-24T05:25:40.640Z,96.04
2022-12-24T05:28:09.740Z,99.10
2022-12-24T05:30:37.236Z,95.22
2022-12-24T05:33:04.895Z,94.92
2022-12-24T05:35:32.471Z,94.62
2022-12-24T05:38:00.095Z,94.05
2022-12-24T05:40:27.573Z,95.76
2022-12-24T05:42:55.003Z,95.83
2022-12-24T05:45:23.728Z,94.61
2022-12-24T05:47:51.162Z,97.86
2022-12-24T05:50:18.801Z,95.11
2022-12-24T05:52:46.230Z,97.20
2022-12-24T05:55:13.647Z,94.54
2022-12-24T05:57:41.518Z,92.81
2022-12-24T06:00:10.477Z,98.27
2022-12-24T06:02:39.336Z,95.97
2022-12-24T06:05:07.167Z,97.25
2022-12-24T06:07:35.406Z,95.85
2022-12-24T06:10:02.848Z,95.28
2022-12-24T06:12:30.382Z,92.02
2022-12-24T06:14:57.821Z,91.60
2022-12-24T06:17:25.325Z,90.92
2022-12-24T06:19:54.025Z,91.81
2022-12-24T06:22:21.467Z,90.62
2022-12-24T06:24:48.917Z,91.71
2022-12-24T06:27:16.362Z,91.06
2022-12-24T06:29:43.777Z,91.20
2022-12-24T06:32:11.202Z,90.67
2022-12-24T06:34:38.710Z,90.11
2022-12-24T06:37:07.568Z,90.26
2022-12-24T06:39:34.968Z,90.76
2022-12-24T06:42:02.374Z,91.84
2022-12-24T06:44:29.776Z,92.58
2022-12-24T06:46:57.418Z,94.19
2022-12-24T06:49:24.854Z,94.20
2022-12-24T06:51:52.276Z,92.51
2022-12-24T06:54:21.046Z,91.06
2022-12-24T06:56:48.425Z,95.33
2022-12-24T06:59:15.889Z,96.10
2022-12-24T07:01:43.417Z,94.31
2022-12-24T07:04:16.255Z,93.58
2022-12-24T07:06:47.199Z,92.62
2022-12-24T07:09:15.272Z,91.79
2022-12-24T07:11:44.145Z,91.49
2022-12-24T07:14:11.601Z,93.00
2022-12-24T07:16:39.093Z,92.28
2022-12-24T07:19:06.750Z,93.27
2022-12-24T07:21:34.410Z,91.81
2022-12-24T07:24:01.859Z,92.06
2022-12-24T07:26:29.277Z,90.08
2022-12-24T07:28:58.189Z,89.66
2022-12-24T07:31:25.671Z,90.15
2022-12-24T07:33:53.333Z,91.52
2022-12-24T07:36:22.091Z,90.57
2022-12-24T07:38:49.563Z,93.29
2022-12-24T07:41:17.101Z,90.87
2022-12-24T07:43:44.568Z,90.66
2022-12-24T07:46:13.360Z,92.48
2022-12-24T07:48:40.824Z,91.86
2022-12-24T07:51:08.338Z,92.01
2022-12-24T07:53:35.831Z,89.83
2022-12-24T07:56:06.234Z,92.17
2022-12-24T07:58:38.005Z,92.70
2022-12-24T08:01:05.791Z,90.86
2022-12-24T08:03:34.632Z,90.35
2022-12-24T08:06:02.319Z,90.49
2022-12-24T08:08:29.854Z,90.24
2022-12-24T08:11:02.606Z,91.54
2022-12-24T08:13:30.468Z,90.09
2022-12-24T08:15:58.034Z,90.85
2022-12-24T08:18:26.003Z,90.62
2022-12-24T08:20:54.738Z,93.13
2022-12-24T08:23:22.224Z,92.72
2022-12-24T08:25:50.342Z,95.26
2022-12-24T08:28:20.578Z,94.02
2022-12-24T08:30:49.945Z,94.22
2022-12-24T08:33:17.886Z,94.08
2022-12-24T08:35:49.109Z,94.27
2022-12-24T08:38:18.080Z,91.58
2022-12-24T08:40:47.226Z,92.27
2022-12-24T08:43:14.620Z,93.61
2022-12-24T08:45:42.081Z,92.84
2022-12-24T08:48:10.935Z,90.74
2022-12-24T08:50:40.948Z,91.65
2022-12-24T08:53:08.402Z,93.96
2022-12-24T08:55:37.347Z,96.03
2022-12-24T08:58:05.109Z,96.27
2022-12-24T09:00:32.566Z,94.46
2022-12-24T09:03:00.119Z,93.96
2022-12-24T09:05:27.731Z,92.36
2022-12-24T09:07:55.287Z,92.97
2022-12-24T09:10:23.229Z,91.81
2022-12-24T09:12:52.122Z,92.09
2022-12-24T09:15:19.985Z,92.30
2022-12-24T09:17:47.400Z,91.31
2022-12-24T09:20:15.074Z,93.23
2022-12-24T09:22:42.593Z,92.85
2022-12-24T09:25:11.125Z,94.75
2022-12-24T09:27:38.606Z,94.07
2022-12-24T09:30:09.134Z,92.75
2022-12-24T09:32:36.702Z,91.54
2022-12-24T09:35:04.502Z,91.14
2022-12-24T09:37:32.022Z,91.23
2022-12-24T09:39:59.434Z,90.37
2022-12-24T09:42:42.416Z,90.87
2022-12-24T09:45:18.754Z,90.16
2022-12-24T09:47:51.637Z,89.26
2022-12-24T09:50:29.814Z,90.18
2022-12-24T09:52:59.444Z,89.69
2022-12-24T09:55:30.843Z,91.56
2022-12-24T09:58:00.576Z,90.69
2022-12-24T10:00:31.694Z,91.39
2022-12-24T10:02:59.386Z,90.66
2022-12-24T10:05:33.816Z,89.73
2022-12-24T10:08:08.601Z,90.01
2022-12-24T10:10:43.459Z,90.17
2022-12-24T10:13:20.981Z,90.01
2022-12-24T10:15:56.016Z,91.53
2022-12-24T10:18:30.573Z,91.46
2022-12-24T10:21:03.901Z,91.01
2022-12-24T10:23:38.958Z,90.98
2022-12-24T10:26:16.329Z,90.48
2022-12-24T10:28:48.111Z,90.70
2022-12-24T10:31:16.917Z,90.40
2022-12-24T10:33:48.277Z,91.17
2022-12-24T10:36:18.768Z,91.50
2022-12-24T10:38:46.535Z,90.82
2022-12-24T10:41:15.215Z,91.61
2022-12-24T10:43:45.073Z,90.73
2022-12-24T10:46:22.082Z,91.33
2022-12-24T10:48:54.263Z,93.39
2022-12-24T10:51:27.016Z,94.00
2022-12-24T10:53:59.745Z,92.34
2022-12-24T10:56:27.152Z,93.17
2022-12-24T10:58:56.237Z,93.13
2022-12-24T11:01:45.829Z,93.94
2022-12-24T11:04:17.645Z,93.39
2022-12-24T11:06:54.345Z,93.67
2022-12-24T11:09:25.610Z,92.07
2022-12-24T11:11:53.175Z,94.63
2022-12-24T11:14:22.306Z,96.92
2022-12-24T11:16:54.402Z,95.52
2022-12-24T11:19:30.117Z,92.47
2022-12-24T11:22:03.939Z,94.04
2022-12-24T11:24:33.371Z,92.64
2022-12-24T11:27:24.227Z,92.94
2022-12-24T11:29:51.907Z,91.93
2022-12-24T11:32:23.350Z,91.90
2022-12-24T11:34:50.890Z,91.64
2022-12-24T11:37:22.020Z,95.46
2022-12-24T11:39:51.836Z,93.33
2022-12-24T11:42:29.542Z,94.78
2022-12-24T11:44:59.236Z,95.57
2022-12-24T11:47:35.850Z,98.58
2022-12-24T11:50:25.567Z,98.54
2022-12-24T11:53:03.542Z,96.46
2022-12-24T11:55:41.126Z,98.13
2022-12-24T11:58:19.684Z,98.25
2022-12-24T12:00:49.010Z,98.87
2022-12-24T12:03:29.904Z,98.77
2022-12-24T12:05:59.942Z,98.30
2022-12-24T12:08:30.136Z,94.77
2022-12-24T12:10:59.907Z,92.84
2022-12-24T12:13:33.440Z,91.64
2022-12-24T12:16:15.419Z,92.54
2022-12-24T12:18:52.105Z,93.08
2022-12-24T12:21:23.986Z,92.36
2022-12-24T12:23:55.645Z,92.62
2022-12-24T12:26:26.672Z,92.84
2022-12-24T12:28:57.250Z,93.80
2022-12-24T12:31:29.464Z,93.25
2022-12-24T12:34:04.483Z,91.85
2022-12-24T12:36:35.348Z,92.45
2022-12-24T12:39:02.838Z,91.59
2022-12-24T12:41:47.006Z,92.83
2022-12-24T12:44:45.354Z,93.15
2022-12-24T12:47:36.132Z,93.08
2022-12-24T12:50:13.456Z,91.56
2022-12-24T12:52:55.669Z,93.22
2022-12-24T12:55:33.468Z,92.45
2022-12-24T12:58:04.331Z,90.92
2022-12-24T13:00:38.093Z,90.04
2022-12-24T13:03:31.826Z,92.40
2022-12-24T13:06:37.634Z,91.18
2022-12-24T13:09:29.825Z,91.17
2022-12-24T13:12:22.097Z,93.78
2022-12-24T13:15:03.825Z,92.62
2022-12-24T13:17:48.060Z,91.91
2022-12-24T13:20:25.115Z,92.13
2022-12-24T13:22:58.213Z,92.26
2022-12-24T13:25:31.336Z,90.97
2022-12-24T13:28:16.391Z,91.46
2022-12-24T13:30:44.511Z,91.81
2022-12-24T13:33:13.789Z,91.64
2022-12-24T13:36:00.221Z,91.77
2022-12-24T13:38:42.621Z,91.25
2022-12-24T13:41:49.718Z,91.18
2022-12-24T13:44:20.234Z,91.75
2022-12-24T13:46:51.095Z,90.31
2022-12-24T13:49:21.769Z,91.05
2022-12-24T13:51:51.076Z,90.28
2022-12-24T13:54:28.483Z,90.13
2022-12-24T13:56:56.087Z,90.75
2022-12-24T13:59:38.380Z,93.74
2022-12-24T14:02:19.705Z,93.34
2022-12-24T14:04:51.878Z,94.91
2022-12-24T14:07:21.233Z,93.16
2022-12-24T14:09:52.699Z,93.71
2022-12-24T14:12:47.688Z,91.23
2022-12-24T14:15:47.279Z,92.91
2022-12-24T14:18:19.129Z,91.47
2022-12-24T14:20:50.255Z,92.09
2022-12-24T14:23:31.568Z,90.82
2022-12-24T14:26:02.663Z,91.94
2022-12-24T14:28:36.959Z,92.42
2022-12-24T14:31:06.597Z,92.44
2022-12-24T14:33:36.138Z,93.73
2022-12-24T14:36:04.102Z,92.47
2022-12-24T14:38:32.081Z,92.24
2022-12-24T14:41:10.088Z,92.26
2022-12-24T14:43:49.882Z,93.12
2022-12-24T14:46:25.647Z,93.30
2022-12-24T14:48:56.495Z,92.80
2022-12-24T14:51:35.743Z,93.12
2022-12-24T14:54:21.796Z,92.51
2022-12-24T14:57:11.084Z,92.22
2022-12-24T14:59:49.758Z,94.26
2022-12-24T15:02:32.392Z,94.44
2022-12-24T15:05:08.172Z,93.20
2022-12-24T15:07:43.603Z,94.98
2022-12-24T15:10:26.670Z,93.15
2022-12-24T15:12:56.530Z,94.40
2022-12-24T15:15:24.340Z,93.76
2022-12-24T15:17:52.384Z,92.56
2022-12-24T15:20:22.645Z,94.39
2022-12-24T15:22:53.267Z,95.86
2022-12-24T15:25:24.973Z,94.30
2022-12-24T15:27:53.138Z,96.04
2022-12-24T15:30:24.449Z,94.09
2022-12-24T15:32:53.698Z,97.05
2022-12-24T15:35:36.012Z,97.22
2022-12-24T15:38:06.397Z,96.34
2022-12-24T15:40:34.935Z,98.69
2022-12-24T15:43:03.890Z,95.67
2022-12-24T15:45:40.425Z,95.09
2022-12-24T15:48:10.919Z,95.00
2022-12-24T15:50:44.191Z,94.37
2022-12-24T15:53:19.360Z,95.20
2022-12-24T15:56:02.470Z,94.65
2022-12-24T15:58:32.227Z,95.15
2022-12-24T16:01:26.665Z,96.53
2022-12-24T16:04:01.176Z,96.43
2022-12-24T16:06:29.418Z,94.79
2022-12-24T16:08:59.997Z,97.11
2022-12-24T16:11:35.057Z,93.70
2022-12-24T16:14:07.836Z,94.02
2022-12-24T16:16:39.700Z,93.21
2022-12-24T16:19:16.594Z,92.64
2022-12-24T16:21:45.060Z,95.20
2022-12-24T16:24:18.277Z,95.68
2022-12-24T16:26:45.751Z,93.55
2022-12-24T16:29:13.678Z,93.42
2022-12-24T16:31:47.723Z,93.19
2022-12-24T16:34:17.119Z,93.82
2022-12-24T16:36:46.398Z,95.26
2022-12-24T16:39:24.038Z,95.76
2022-12-24T16:42:09.376Z,95.99
2022-12-24T16:44:37.102Z,96.71
2022-12-24T16:47:07.700Z,95.16
2022-12-24T16:49:38.591Z,96.21
2022-12-24T16:52:06.410Z,95.53
2022-12-24T16:54:34.741Z,94.11
2022-12-24T16:57:02.182Z,95.47
2022-12-24T16:59:29.680Z,94.22
2022-12-24T17:01:57.329Z,96.44
2022-12-24T17:04:33.478Z,94.91
2022-12-24T17:07:01.037Z,95.20
2022-12-24T17:09:28.536Z,93.33
2022-12-24T17:11:56.014Z,93.36
2022-12-24T17:14:23.487Z,93.43
2022-12-24T17:16:50.941Z,92.91
2022-12-24T17:19:18.444Z,93.97
2022-12-24T17:21:47.304Z,93.38
2022-12-24T17:24:15.175Z,94.24
2022-12-24T17:26:45.420Z,93.03
2022-12-24T17:29:12.913Z,93.85
2022-12-24T17:31:40.872Z,94.73
2022-12-24T17:34:08.377Z,95.05
2022-12-24T17:36:36.005Z,94.58
2022-12-24T17:39:04.965Z,92.99
2022-12-24T17:41:32.362Z,94.70
2022-12-24T17:44:00.135Z,95.64
2022-12-24T17:46:27.689Z,96.58
2022-12-24T17:48:56.561Z,94.46
2022-12-24T17:51:24.443Z,95.14
2022-12-24T17:53:52.107Z,95.43
2022-12-24T17:56:21.212Z,95.79
2022-12-24T17:58:48.671Z,94.42
2022-12-24T18:01:19.020Z,96.17
2022-12-24T18:03:47.547Z,95.26
2022-12-24T18:06:16.184Z,94.74
2022-12-24T18:08:46.445Z,94.36
2022-12-24T18:11:14.747Z,95.18
2022-12-24T18:13:43.907Z,93.75
2022-12-24T18:16:16.786Z,93.82
2022-12-24T18:18:44.742Z,96.29
2022-12-24T18:21:12.279Z,95.99
2022-12-24T18:23:45.589Z,99.62
2022-12-24T18:26:13.698Z,100.00
2022-12-24T18:28:42.786Z,97.38
2022-12-24T18:31:14.572Z,97.10
2022-12-24T18:33:47.046Z,97.25
2022-12-24T18:36:14.870Z,96.27
2022-12-24T18:38:42.566Z,95.81
2022-12-24T18:41:12.060Z,96.78
2022-12-24T18:43:39.690Z,96.09
2022-12-24T18:46:09.601Z,95.90
2022-12-24T18:48:37.339Z,98.02
2022-12-24T18:51:06.709Z,96.01
2022-12-24T18:53:34.688Z,96.76
2022-12-24T18:56:07.063Z,96.75
2022-12-24T18:58:35.124Z,94.40
2022-12-24T19:01:02.618Z,95.32
2022-12-24T19:03:31.461Z,94.14
2022-12-24T19:06:01.843Z,93.22
2022-12-24T19:08:56.447Z,94.67
2022-12-24T19:11:18.817Z,95.82
2022-12-24T19:13:47.947Z,95.82
2022-12-24T19:16:16.362Z,95.28
2022-12-24T19:18:45.763Z,96.29
2022-12-24T19:21:15.159Z,97.21
2022-12-24T19:23:45.111Z,95.17
2022-12-24T19:26:14.457Z,96.87
2022-12-24T19:28:44.425Z,96.55
2022-12-24T19:31:14.188Z,98.32
2022-12-24T19:33:44.460Z,99.36
2022-12-24T19:36:15.644Z,96.76
2022-12-24T19:38:45.735Z,99.18
2022-12-24T19:41:15.207Z,98.65
2022-12-24T19:43:45.927Z,96.81
2022-12-24T19:46:15.617Z,95.37
2022-12-24T19:48:44.092Z,94.41
2022-12-24T19:51:13.486Z,96.64
2022-12-24T19:53:41.231Z,94.81
2022-12-24T19:56:09.578Z,94.18
2022-12-24T19:58:37.501Z,94.64
2022-12-24T20:01:14.830Z,98.54
2022-12-24T20:03:43.835Z,96.73
2022-12-24T20:06:12.738Z,95.99
2022-12-24T20:08:40.756Z,89.67
2022-12-24T20:11:10.084Z,93.45
2022-12-24T20:13:39.356Z,95.50
2022-12-24T20:16:08.540Z,91.06
2022-12-24T20:18:36.168Z,94.51
2022-12-24T20:21:05.767Z,100.00
2022-12-24T20:23:34.855Z,99.39
2022-12-24T20:26:05.231Z,92.67
2022-12-24T20:28:34.564Z,89.10
2022-12-24T20:31:02.026Z,90.24
2022-12-24T20:33:29.436Z,89.19
2022-12-24T20:36:02.282Z,87.07
2022-12-24T20:38:29.894Z,87.48
2022-12-24T20:40:58.915Z,87.44
2022-12-24T20:43:30.708Z,80.32
2022-12-24T20:46:02.412Z,89.48
2022-12-24T20:48:30.506Z,88.37
2022-12-24T20:50:58.030Z,81.95
2022-12-24T20:53:25.908Z,82.43
2022-12-24T20:55:54.469Z,81.35
2022-12-24T20:58:23.315Z,86.96
2022-12-24T21:00:50.912Z,83.78
2022-12-24T21:03:19.125Z,85.25
2022-12-24T21:05:46.715Z,85.43
2022-12-24T21:08:14.632Z,85.62
2022-12-24T21:10:42.292Z,89.06
2022-12-24T21:13:08.873Z,87.53
2022-12-24T21:15:39.821Z,80.69
2022-12-24T21:18:11.570Z,85.04
2022-12-24T21:20:39.916Z,86.22
2022-12-24T21:23:07.663Z,85.44
2022-12-24T21:25:35.458Z,87.97
2022-12-24T21:28:03.182Z,88.26
2022-12-24T21:30:32.147Z,89.41
2022-12-24T21:33:00.992Z,89.20
2022-12-24T21:35:28.498Z,91.48
2022-12-24T21:37:55.895Z,89.24
2022-12-24T21:40:25.471Z,90.16
2022-12-24T21:42:52.882Z,89.74
2022-12-24T21:45:21.873Z,91.64
2022-12-24T21:47:49.299Z,89.89
2022-12-24T21:50:36.030Z,93.03
2022-12-24T21:53:17.481Z,92.58
2022-12-24T21:55:45.315Z,94.49
2022-12-24T21:58:15.292Z,95.45
2022-12-24T22:00:43.675Z,93.54
2022-12-24T22:03:11.532Z,91.88
2022-12-24T22:05:42.369Z,91.29
2022-12-24T22:08:27.769Z,90.29
2022-12-24T22:11:14.752Z,92.62
2022-12-24T22:13:42.346Z,92.52
2022-12-24T22:16:15.251Z,92.46
2022-12-24T22:18:42.704Z,93.49
2022-12-24T22:21:12.743Z,94.26
2022-12-24T22:23:42.867Z,93.59
2022-12-24T22:26:16.768Z,92.71
2022-12-24T22:28:45.434Z,94.78
2022-12-24T22:31:20.269Z,92.03
2022-12-24T22:33:48.106Z,91.39
2022-12-24T22:36:17.410Z,93.68
2022-12-24T22:38:44.895Z,92.03
2022-12-24T22:41:13.894Z,91.48
2022-12-24T22:43:41.557Z,91.18
2022-12-24T22:46:10.551Z,91.69
2022-12-24T22:48:38.882Z,91.75
2022-12-24T22:51:07.411Z,94.24
2022-12-24T22:53:37.100Z,92.44
2022-12-24T22:56:05.873Z,93.63
2022-12-24T22:58:33.465Z,91.89
2022-12-24T23:01:01.956Z,91.97
2022-12-24T23:03:30.616Z,91.42
2022-12-24T23:05:58.909Z,92.10
2022-12-24T23:08:27.504Z,91.69
2022-12-24T23:11:06.520Z,90.28
2022-12-24T23:13:51.510Z,91.80
2022-12-24T23:16:18.975Z,90.95
2022-12-24T23:18:46.468Z,92.83
2022-12-24T23:21:14.213Z,93.12
2022-12-24T23:23:41.646Z,90.52
2022-12-24T23:26:12.710Z,92.80
2022-12-24T23:28:40.805Z,93.41
2022-12-24T23:31:08.682Z,92.43
2022-12-24T23:33:36.860Z,91.80
2022-12-24T23:36:05.259Z,94.31
2022-12-24T23:38:33.314Z,91.98
2022-12-24T23:41:02.826Z,92.08
2022-12-24T23:43:32.208Z,91.39
2022-12-24T23:45:59.692Z,90.11
2022-12-24T23:48:27.685Z,91.84
2022-12-24T23:51:05.083Z,94.78
2022-12-24T23:53:32.645Z,94.61
2022-12-24T23:56:00.195Z,91.97
2022-12-24T23:58:27.707Z,92.10
